sensor_id;sensor_type;location;lat;lon;timestamp;pressure;altitude;pressure_sealevel;temperature;humidity
58385;BME280;44185;47.844;8.966;2023-09-30T00:01:57;97050.50;;;14.71;100.00
58385;BME280;44185;47.844;8.966;2023-09-30T00:04:22;97049.44;;;14.83;100.00
58385;BME280;44185;47.844;8.966;2023-09-30T00:06:49;97048.16;;;14.77;100.00
58385;BME280;44185;47.844;8.966;2023-09-30T00:09:15;97051.38;;;14.81;100.00
58385;BME280;44185;47.844;8.966;2023-09-30T00:11:40;97049.44;;;14.83;100.00
58385;BME280;44185;47.844;8.966;2023-09-30T00:14:06;97046.34;;;14.78;100.00
58385;BME280;44185;47.844;8.966;2023-09-30T00:16:31;97053.34;;;14.69;100.00
58385;BME280;44185;47.844;8.966;2023-09-30T00:18:56;97050.25;;;14.64;100.00
58385;BME280;44185;47.844;8.966;2023-09-30T00:21:22;97050.50;;;14.71;100.00
58385;BME280;44185;47.844;8.966;2023-09-30T00:23:49;97052.78;;;14.75;100.00
58385;BME280;44185;47.844;8.966;2023-09-30T00:26:15;97053.47;;;14.67;100.00
58385;BME280;44185;47.844;8.966;2023-09-30T00:28:40;97051.50;;;14.70;100.00
58385;BME280;44185;47.844;8.966;2023-09-30T00:31:06;97050.41;;;14.72;100.00
58385;BME280;44185;47.844;8.966;2023-09-30T00:33:32;97045.75;;;14.74;100.00
58385;BME280;44185;47.844;8.966;2023-09-30T00:35:57;97037.19;;;14.71;100.00
58385;BME280;44185;47.844;8.966;2023-09-30T00:38:23;97030.75;;;14.73;100.00
58385;BME280;44185;47.844;8.966;2023-09-30T00:40:49;97034.94;;;14.66;100.00
58385;BME280;44185;47.844;8.966;2023-09-30T00:43:18;97033.69;;;14.60;100.00
58385;BME280;44185;47.844;8.966;2023-09-30T00:45:44;97037.34;;;14.69;100.00
58385;BME280;44185;47.844;8.966;2023-09-30T00:48:10;97035.53;;;14.70;100.00
58385;BME280;44185;47.844;8.966;2023-09-30T00:50:35;97031.88;;;14.71;100.00
58385;BME280;44185;47.844;8.966;2023-09-30T00:53:01;97037.91;;;14.73;100.00
58385;BME280;44185;47.844;8.966;2023-09-30T00:55:26;97026.16;;;14.75;100.00
58385;BME280;44185;47.844;8.966;2023-09-30T00:57:53;97019.41;;;14.71;100.00
58385;BME280;44185;47.844;8.966;2023-09-30T01:00:19;97026.84;;;14.67;100.00
58385;BME280;44185;47.844;8.966;2023-09-30T01:02:45;97031.06;;;14.70;100.00
58385;BME280;44185;47.844;8.966;2023-09-30T01:05:10;97030.47;;;14.66;100.00
58385;BME280;44185;47.844;8.966;2023-09-30T01:07:36;97034.69;;;14.69;100.00
58385;BME280;44185;47.844;8.966;2023-09-30T01:10:01;97019.97;;;14.65;100.00
58385;BME280;44185;47.844;8.966;2023-09-30T01:12:27;97027.53;;;14.70;100.00
58385;BME280;44185;47.844;8.966;2023-09-30T01:14:58;97021.22;;;14.61;100.00
58385;BME280;44185;47.844;8.966;2023-09-30T01:17:23;97018.28;;;14.54;100.00
58385;BME280;44185;47.844;8.966;2023-09-30T01:19:49;97022.88;;;14.52;100.00
58385;BME280;44185;47.844;8.966;2023-09-30T01:22:16;97005.22;;;14.51;100.00
58385;BME280;44185;47.844;8.966;2023-09-30T01:24:42;97009.44;;;14.43;100.00
58385;BME280;44185;47.844;8.966;2023-09-30T01:27:07;97017.53;;;14.32;100.00
58385;BME280;44185;47.844;8.966;2023-09-30T01:29:33;97020.03;;;14.33;100.00
58385;BME280;44185;47.844;8.966;2023-09-30T01:31:58;97023.00;;;14.30;100.00
58385;BME280;44185;47.844;8.966;2023-09-30T01:34:24;97022.34;;;14.07;100.00
58385;BME280;44185;47.844;8.966;2023-09-30T01:36:49;97013.50;;;13.96;100.00
58385;BME280;44185;47.844;8.966;2023-09-30T01:39:16;97019.53;;;13.98;100.00
58385;BME280;44185;47.844;8.966;2023-09-30T01:41:42;97027.78;;;13.95;100.00
58385;BME280;44185;47.844;8.966;2023-09-30T01:44:07;97026.97;;;14.05;100.00
58385;BME280;44185;47.844;8.966;2023-09-30T01:46:33;97025.00;;;14.07;100.00
58385;BME280;44185;47.844;8.966;2023-09-30T01:48:59;97033.91;;;14.17;100.00
58385;BME280;44185;47.844;8.966;2023-09-30T01:51:24;97018.56;;;14.09;100.00
58385;BME280;44185;47.844;8.966;2023-09-30T01:53:50;97012.13;;;14.12;100.00
58385;BME280;44185;47.844;8.966;2023-09-30T01:56:16;97011.44;;;14.10;100.00
58385;BME280;44185;47.844;8.966;2023-09-30T01:58:42;97013.50;;;13.96;100.00
58385;BME280;44185;47.844;8.966;2023-09-30T02:01:08;97005.81;;;13.93;100.00
58385;BME280;44185;47.844;8.966;2023-09-30T02:03:33;96999.59;;;13.83;100.00
58385;BME280;44185;47.844;8.966;2023-09-30T02:05:58;97011.34;;;13.80;100.00
58385;BME280;44185;47.844;8.966;2023-09-30T02:08:24;97013.78;;;13.93;100.00
58385;BME280;44185;47.844;8.966;2023-09-30T02:10:50;97022.47;;;13.95;100.00
58385;BME280;44185;47.844;8.966;2023-09-30T02:13:17;97010.53;;;13.89;100.00
58385;BME280;44185;47.844;8.966;2023-09-30T02:15:42;97006.34;;;13.87;100.00
58385;BME280;44185;47.844;8.966;2023-09-30T02:18:08;97006.75;;;13.82;100.00
58385;BME280;44185;47.844;8.966;2023-09-30T02:20:33;97002.91;;;13.75;100.00
58385;BME280;44185;47.844;8.966;2023-09-30T02:22:59;96990.63;;;13.84;100.00
58385;BME280;44185;47.844;8.966;2023-09-30T02:25:24;97003.19;;;13.72;100.00
58385;BME280;44185;47.844;8.966;2023-09-30T02:27:49;97004.81;;;13.63;100.00
58385;BME280;44185;47.844;8.966;2023-09-30T02:30:16;97005.22;;;13.58;100.00
58385;BME280;44185;47.844;8.966;2023-09-30T02:32:42;97007.09;;;13.67;100.00
58385;BME280;44185;47.844;8.966;2023-09-30T02:35:08;97016.34;;;13.73;100.00
58385;BME280;44185;47.844;8.966;2023-09-30T02:37:34;97018.16;;;13.73;100.00
58385;BME280;44185;47.844;8.966;2023-09-30T02:40:00;97025.19;;;13.74;100.00
58385;BME280;44185;47.844;8.966;2023-09-30T02:42:25;97024.03;;;13.66;100.00
58385;BME280;44185;47.844;8.966;2023-09-30T02:44:51;97023.47;;;13.73;100.00
58385;BME280;44185;47.844;8.966;2023-09-30T02:47:17;97017.16;;;13.64;100.00
58385;BME280;44185;47.844;8.966;2023-09-30T02:49:43;97018.13;;;13.63;100.00
58385;BME280;44185;47.844;8.966;2023-09-30T02:52:08;97020.19;;;13.59;100.00
58385;BME280;44185;47.844;8.966;2023-09-30T02:54:34;97021.25;;;13.56;100.00
58385;BME280;44185;47.844;8.966;2023-09-30T02:56:59;97014.50;;;13.64;100.00
58385;BME280;44185;47.844;8.966;2023-09-30T02:59:25;97009.34;;;13.72;100.00
58385;BME280;44185;47.844;8.966;2023-09-30T03:01:50;97008.53;;;13.50;100.00
58385;BME280;44185;47.844;8.966;2023-09-30T03:04:17;97011.00;;;13.42;100.00
58385;BME280;44185;47.844;8.966;2023-09-30T03:06:42;97011.28;;;13.49;100.00
58385;BME280;44185;47.844;8.966;2023-09-30T03:09:08;97004.56;;;13.44;100.00
58385;BME280;44185;47.844;8.966;2023-09-30T03:11:33;97007.75;;;13.38;100.00
58385;BME280;44185;47.844;8.966;2023-09-30T03:13:59;97015.84;;;13.37;100.00
58385;BME280;44185;47.844;8.966;2023-09-30T03:16:24;97015.97;;;13.35;100.00
58385;BME280;44185;47.844;8.966;2023-09-30T03:18:50;97027.19;;;13.39;100.00
58385;BME280;44185;47.844;8.966;2023-09-30T03:21:17;97012.53;;;13.44;100.00
58385;BME280;44185;47.844;8.966;2023-09-30T03:23:43;97021.19;;;13.37;100.00
58385;BME280;44185;47.844;8.966;2023-09-30T03:26:08;97017.41;;;13.39;100.00
58385;BME280;44185;47.844;8.966;2023-09-30T03:28:34;97012.03;;;13.29;100.00
58385;BME280;44185;47.844;8.966;2023-09-30T03:30:59;97015.53;;;13.30;100.00
58385;BME280;44185;47.844;8.966;2023-09-30T03:33:25;97015.53;;;13.30;100.00
58385;BME280;44185;47.844;8.966;2023-09-30T03:35:50;97020.59;;;13.33;100.00
58385;BME280;44185;47.844;8.966;2023-09-30T03:38:17;97027.44;;;13.35;100.00
58385;BME280;44185;47.844;8.966;2023-09-30T03:40:42;97020.84;;;13.30;100.00
58385;BME280;44185;47.844;8.966;2023-09-30T03:43:08;97023.50;;;13.30;100.00
58385;BME280;44185;47.844;8.966;2023-09-30T03:45:33;97021.22;;;13.25;100.00
58385;BME280;44185;47.844;8.966;2023-09-30T03:47:59;97022.97;;;13.36;100.00
58385;BME280;44185;47.844;8.966;2023-09-30T03:50:24;97018.06;;;13.31;100.00
58385;BME280;44185;47.844;8.966;2023-09-30T03:52:50;97028.94;;;13.28;100.00
58385;BME280;44185;47.844;8.966;2023-09-30T03:55:17;97026.22;;;13.40;100.00
58385;BME280;44185;47.844;8.966;2023-09-30T03:57:42;97022.72;;;13.18;100.00
58385;BME280;44185;47.844;8.966;2023-09-30T04:00:09;97018.97;;;13.20;100.00
58385;BME280;44185;47.844;8.966;2023-09-30T04:02:34;97024.53;;;13.17;100.00
58385;BME280;44185;47.844;8.966;2023-09-30T04:05:00;97010.53;;;13.15;100.00
58385;BME280;44185;47.844;8.966;2023-09-30T04:07:25;97007.50;;;13.20;100.00
58385;BME280;44185;47.844;8.966;2023-09-30T04:09:51;96999.41;;;13.21;100.00
58385;BME280;44185;47.844;8.966;2023-09-30T04:12:17;96999.41;;;13.21;100.00
58385;BME280;44185;47.844;8.966;2023-09-30T04:14:43;97000.69;;;13.27;100.00
58385;BME280;44185;47.844;8.966;2023-09-30T04:17:08;96998.31;;;13.03;100.00
58385;BME280;44185;47.844;8.966;2023-09-30T04:19:34;96984.81;;;12.94;100.00
58385;BME280;44185;47.844;8.966;2023-09-30T04:21:59;96980.56;;;13.03;100.00
58385;BME280;44185;47.844;8.966;2023-09-30T04:24:25;96988.13;;;13.08;100.00
58385;BME280;44185;47.844;8.966;2023-09-30T04:26:50;96991.19;;;13.03;100.00
58385;BME280;44185;47.844;8.966;2023-09-30T04:29:17;96988.25;;;13.06;100.00
58385;BME280;44185;47.844;8.966;2023-09-30T04:31:43;96993.44;;;13.08;100.00
58385;BME280;44185;47.844;8.966;2023-09-30T04:34:08;97001.31;;;12.98;100.00
58385;BME280;44185;47.844;8.966;2023-09-30T04:36:34;97006.53;;;12.99;100.00
58385;BME280;44185;47.844;8.966;2023-09-30T04:38:59;97016.75;;;13.04;100.00
58385;BME280;44185;47.844;8.966;2023-09-30T04:41:24;97020.06;;;12.96;100.00
58385;BME280;44185;47.844;8.966;2023-09-30T04:43:50;97018.00;;;13.00;100.00
58385;BME280;44185;47.844;8.966;2023-09-30T04:46:17;97008.34;;;12.99;100.00
58385;BME280;44185;47.844;8.966;2023-09-30T04:48:42;97004.13;;;12.96;100.00
58385;BME280;44185;47.844;8.966;2023-09-30T04:51:08;96998.53;;;12.78;100.00
58385;BME280;44185;47.844;8.966;2023-09-30T04:53:34;97010.38;;;12.74;100.00
58385;BME280;44185;47.844;8.966;2023-09-30T04:55:59;97016.53;;;12.74;100.00
58385;BME280;44185;47.844;8.966;2023-09-30T04:58:25;97024.00;;;12.81;100.00
58385;BME280;44185;47.844;8.966;2023-09-30T05:00:50;97026.00;;;12.88;100.00
58385;BME280;44185;47.844;8.966;2023-09-30T05:03:17;97043.81;;;12.98;100.00
58385;BME280;44185;47.844;8.966;2023-09-30T05:05:42;97041.78;;;13.01;100.00
58385;BME280;44185;47.844;8.966;2023-09-30T05:08:08;97039.72;;;13.05;100.00
58385;BME280;44185;47.844;8.966;2023-09-30T05:10:33;97050.19;;;13.07;100.00
58385;BME280;44185;47.844;8.966;2023-09-30T05:12:59;97038.88;;;13.05;100.00
58385;BME280;44185;47.844;8.966;2023-09-30T05:15:24;97043.31;;;13.04;100.00
58385;BME280;44185;47.844;8.966;2023-09-30T05:17:50;97046.47;;;12.98;100.00
58385;BME280;44185;47.844;8.966;2023-09-30T05:20:17;97047.47;;;12.97;100.00
58385;BME280;44185;47.844;8.966;2023-09-30T05:22:42;97038.59;;;12.86;100.00
58385;BME280;44185;47.844;8.966;2023-09-30T05:25:08;97041.56;;;12.93;100.00
58385;BME280;44185;47.844;8.966;2023-09-30T05:27:34;97029.50;;;12.89;100.00
58385;BME280;44185;47.844;8.966;2023-09-30T05:29:59;97037.72;;;12.86;100.00
58385;BME280;44185;47.844;8.966;2023-09-30T05:32:25;97048.44;;;12.96;100.00
58385;BME280;44185;47.844;8.966;2023-09-30T05:34:50;97064.97;;;12.99;100.00
58385;BME280;44185;47.844;8.966;2023-09-30T05:37:17;97062.53;;;13.08;100.00
58385;BME280;44185;47.844;8.966;2023-09-30T05:39:43;97061.44;;;13.10;100.00
58385;BME280;44185;47.844;8.966;2023-09-30T05:42:09;97052.91;;;13.17;100.00
58385;BME280;44185;47.844;8.966;2023-09-30T05:44:34;97047.03;;;13.13;100.00
58385;BME280;44185;47.844;8.966;2023-09-30T05:47:00;97051.91;;;13.08;100.00
58385;BME280;44185;47.844;8.966;2023-09-30T05:49:25;97052.75;;;13.08;100.00
58385;BME280;44185;47.844;8.966;2023-09-30T05:51:51;97054.22;;;13.22;100.00
58385;BME280;44185;47.844;8.966;2023-09-30T05:54:17;97059.78;;;13.19;100.00
58385;BME280;44185;47.844;8.966;2023-09-30T05:56:43;97063.75;;;13.25;100.00
58385;BME280;44185;47.844;8.966;2023-09-30T05:59:09;97053.13;;;13.25;100.00
58385;BME280;44185;47.844;8.966;2023-09-30T06:01:34;97055.03;;;13.34;100.00
58385;BME280;44185;47.844;8.966;2023-09-30T06:04:00;97054.03;;;13.35;100.00
58385;BME280;44185;47.844;8.966;2023-09-30T06:06:25;97066.47;;;13.35;100.00
58385;BME280;44185;47.844;8.966;2023-09-30T06:08:51;97075.03;;;13.39;100.00
58385;BME280;44185;47.844;8.966;2023-09-30T06:11:18;97062.16;;;13.34;100.00
58385;BME280;44185;47.844;8.966;2023-09-30T06:13:44;97062.34;;;13.21;100.00
58385;BME280;44185;47.844;8.966;2023-09-30T06:16:10;97060.06;;;13.16;100.00
58385;BME280;44185;47.844;8.966;2023-09-30T06:18:36;97048.91;;;13.22;100.00
58385;BME280;44185;47.844;8.966;2023-09-30T06:21:01;97050.59;;;13.23;100.00
58385;BME280;44185;47.844;8.966;2023-09-30T06:23:27;97055.88;;;13.14;100.00
58385;BME280;44185;47.844;8.966;2023-09-30T06:25:53;97059.34;;;13.14;100.00
58385;BME280;44185;47.844;8.966;2023-09-30T06:28:19;97054.81;;;13.26;100.00
58385;BME280;44185;47.844;8.966;2023-09-30T06:30:45;97059.34;;;13.35;100.00
58385;BME280;44185;47.844;8.966;2023-09-30T06:33:10;97061.94;;;13.47;100.00
58385;BME280;44185;47.844;8.966;2023-09-30T06:35:36;97062.22;;;13.65;100.00
58385;BME280;44185;47.844;8.966;2023-09-30T06:38:01;97065.53;;;13.79;100.00
58385;BME280;44185;47.844;8.966;2023-09-30T06:40:27;97064.84;;;13.87;100.00
58385;BME280;44185;47.844;8.966;2023-09-30T06:42:52;97064.78;;;13.98;100.00
58385;BME280;44185;47.844;8.966;2023-09-30T06:45:19;97064.56;;;14.11;100.00
58385;BME280;44185;47.844;8.966;2023-09-30T06:47:45;97070.59;;;14.23;100.00
58385;BME280;44185;47.844;8.966;2023-09-30T06:50:12;97084.66;;;14.36;100.00
58385;BME280;44185;47.844;8.966;2023-09-30T06:52:39;97101.50;;;14.46;100.00
58385;BME280;44185;47.844;8.966;2023-09-30T06:55:06;97104.72;;;14.50;100.00
58385;BME280;44185;47.844;8.966;2023-09-30T06:57:32;97104.91;;;14.58;100.00
58385;BME280;44185;47.844;8.966;2023-09-30T06:59:57;97108.31;;;14.70;100.00
58385;BME280;44185;47.844;8.966;2023-09-30T07:02:24;97105.22;;;14.75;100.00
58385;BME280;44185;47.844;8.966;2023-09-30T07:04:50;97102.00;;;14.81;100.00
58385;BME280;44185;47.844;8.966;2023-09-30T07:07:15;97103.53;;;14.84;100.00
58385;BME280;44185;47.844;8.966;2023-09-30T07:09:41;97106.06;;;14.75;100.00
58385;BME280;44185;47.844;8.966;2023-09-30T07:12:07;97113.84;;;14.88;100.00
58385;BME280;44185;47.844;8.966;2023-09-30T07:14:33;97111.72;;;14.92;100.00
58385;BME280;44185;47.844;8.966;2023-09-30T07:16:58;97122.09;;;15.05;100.00
58385;BME280;44185;47.844;8.966;2023-09-30T07:19:25;97125.50;;;15.07;100.00
58385;BME280;44185;47.844;8.966;2023-09-30T07:21:50;97137.56;;;15.11;100.00
58385;BME280;44185;47.844;8.966;2023-09-30T07:24:16;97136.44;;;15.24;100.00
58385;BME280;44185;47.844;8.966;2023-09-30T07:26:41;97137.97;;;15.17;100.00
58385;BME280;44185;47.844;8.966;2023-09-30T07:29:08;97141.06;;;15.22;100.00
58385;BME280;44185;47.844;8.966;2023-09-30T07:31:35;97137.56;;;15.31;100.00
58385;BME280;44185;47.844;8.966;2023-09-30T07:34:01;97137.00;;;15.38;100.00
58385;BME280;44185;47.844;8.966;2023-09-30T07:36:28;97142.91;;;15.51;100.00
58385;BME280;44185;47.844;8.966;2023-09-30T07:38:53;97143.03;;;15.60;100.00
58385;BME280;44185;47.844;8.966;2023-09-30T07:41:19;97131.78;;;15.76;100.00
58385;BME280;44185;47.844;8.966;2023-09-30T07:43:44;97115.63;;;15.77;100.00
58385;BME280;44185;47.844;8.966;2023-09-30T07:46:09;97123.19;;;15.92;100.00
58385;BME280;44185;47.844;8.966;2023-09-30T07:48:35;97124.97;;;16.11;100.00
58385;BME280;44185;47.844;8.966;2023-09-30T07:51:00;97134.50;;;16.14;100.00
58385;BME280;44185;47.844;8.966;2023-09-30T07:53:27;97126.25;;;16.07;100.00
58385;BME280;44185;47.844;8.966;2023-09-30T07:55:53;97117.13;;;16.10;100.00
58385;BME280;44185;47.844;8.966;2023-09-30T07:58:18;97119.22;;;16.16;100.00
58385;BME280;44185;47.844;8.966;2023-09-30T08:00:43;97128.31;;;16.23;100.00
58385;BME280;44185;47.844;8.966;2023-09-30T08:03:09;97128.25;;;16.33;100.00
58385;BME280;44185;47.844;8.966;2023-09-30T08:05:34;97131.03;;;16.42;100.00
58385;BME280;44185;47.844;8.966;2023-09-30T08:08:01;97140.44;;;16.46;100.00
58385;BME280;44185;47.844;8.966;2023-09-30T08:10:28;97145.00;;;16.64;100.00
58385;BME280;44185;47.844;8.966;2023-09-30T08:12:54;97138.81;;;16.63;100.00
58385;BME280;44185;47.844;8.966;2023-09-30T08:15:19;97143.34;;;16.81;100.00
58385;BME280;44185;47.844;8.966;2023-09-30T08:17:44;97141.75;;;16.88;100.00
58385;BME280;44185;47.844;8.966;2023-09-30T08:20:10;97151.97;;;16.75;100.00
58385;BME280;44185;47.844;8.966;2023-09-30T08:22:36;97155.16;;;17.07;100.00
58385;BME280;44185;47.844;8.966;2023-09-30T08:25:02;97157.94;;;17.33;100.00
58385;BME280;44185;47.844;8.966;2023-09-30T08:27:28;97163.75;;;17.47;97.49
58385;BME280;44185;47.844;8.966;2023-09-30T08:29:54;97151.59;;;17.53;96.33
58385;BME280;44185;47.844;8.966;2023-09-30T08:32:19;97149.91;;;17.70;98.51
58385;BME280;44185;47.844;8.966;2023-09-30T08:34:45;97142.34;;;17.65;92.89
58385;BME280;44185;47.844;8.966;2023-09-30T08:37:10;97143.63;;;17.79;93.96
58385;BME280;44185;47.844;8.966;2023-09-30T08:39:38;97138.84;;;17.92;93.56
58385;BME280;44185;47.844;8.966;2023-09-30T08:42:07;97147.56;;;17.94;92.68
58385;BME280;44185;47.844;8.966;2023-09-30T08:44:35;97138.44;;;17.78;84.21
58385;BME280;44185;47.844;8.966;2023-09-30T08:47:02;97126.41;;;18.09;85.23
58385;BME280;44185;47.844;8.966;2023-09-30T08:49:27;97119.69;;;18.31;85.62
58385;BME280;44185;47.844;8.966;2023-09-30T08:51:55;97124.56;;;18.36;84.62
58385;BME280;44185;47.844;8.966;2023-09-30T08:54:23;97129.81;;;18.46;85.99
58385;BME280;44185;47.844;8.966;2023-09-30T08:56:49;97128.69;;;18.57;84.71
58385;BME280;44185;47.844;8.966;2023-09-30T08:59:15;97138.13;;;18.78;85.28
58385;BME280;44185;47.844;8.966;2023-09-30T09:01:41;97139.97;;;18.77;83.72
58385;BME280;44185;47.844;8.966;2023-09-30T09:04:07;97155.38;;;18.75;84.39
58385;BME280;44185;47.844;8.966;2023-09-30T09:06:33;97153.44;;;18.51;86.19
58385;BME280;44185;47.844;8.966;2023-09-30T09:09:13;97156.13;;;18.51;88.68
58385;BME280;44185;47.844;8.966;2023-09-30T09:11:38;97155.44;;;18.49;86.62
58385;BME280;44185;47.844;8.966;2023-09-30T09:14:04;97154.41;;;18.41;87.26
58385;BME280;44185;47.844;8.966;2023-09-30T09:16:29;97153.34;;;18.34;88.83
58385;BME280;44185;47.844;8.966;2023-09-30T09:18:56;97164.34;;;18.22;89.68
58385;BME280;44185;47.844;8.966;2023-09-30T09:21:21;97158.44;;;18.19;90.65
58385;BME280;44185;47.844;8.966;2023-09-30T09:23:48;97162.78;;;18.20;90.97
58385;BME280;44185;47.844;8.966;2023-09-30T09:26:23;97156.03;;;18.07;91.76
58385;BME280;44185;47.844;8.966;2023-09-30T09:28:49;97154.50;;;18.05;92.65
58385;BME280;44185;47.844;8.966;2023-09-30T09:31:22;97159.88;;;18.05;92.71
58385;BME280;44185;47.844;8.966;2023-09-30T09:33:49;97158.72;;;17.89;90.71
58385;BME280;44185;47.844;8.966;2023-09-30T09:36:16;97143.16;;;17.84;91.56
58385;BME280;44185;47.844;8.966;2023-09-30T09:38:45;97140.84;;;17.89;93.91
58385;BME280;44185;47.844;8.966;2023-09-30T09:41:11;97142.16;;;17.85;91.89
58385;BME280;44185;47.844;8.966;2023-09-30T09:43:37;97153.00;;;18.02;91.20
58385;BME280;44185;47.844;8.966;2023-09-30T09:46:05;97151.84;;;18.05;88.92
58385;BME280;44185;47.844;8.966;2023-09-30T09:48:33;97147.47;;;18.04;90.74
58385;BME280;44185;47.844;8.966;2023-09-30T09:50:59;97138.09;;;18.08;90.60
58385;BME280;44185;47.844;8.966;2023-09-30T09:53:26;97138.09;;;18.08;88.36
58385;BME280;44185;47.844;8.966;2023-09-30T09:55:56;97129.97;;;18.18;88.60
58385;BME280;44185;47.844;8.966;2023-09-30T09:58:21;97137.56;;;18.22;87.96
58385;BME280;44185;47.844;8.966;2023-09-30T10:00:48;97136.91;;;18.29;89.68
58385;BME280;44185;47.844;8.966;2023-09-30T10:03:13;97127.41;;;18.34;87.60
58385;BME280;44185;47.844;8.966;2023-09-30T10:05:39;97126.19;;;18.29;88.96
58385;BME280;44185;47.844;8.966;2023-09-30T10:08:07;97127.34;;;18.26;88.39
58385;BME280;44185;47.844;8.966;2023-09-30T10:10:36;97117.88;;;18.14;87.05
58385;BME280;44185;47.844;8.966;2023-09-30T10:13:02;97117.03;;;18.13;86.92
58385;BME280;44185;47.844;8.966;2023-09-30T10:15:35;97127.94;;;18.11;89.41
58385;BME280;44185;47.844;8.966;2023-09-30T10:18:02;97123.38;;;18.04;88.27
58385;BME280;44185;47.844;8.966;2023-09-30T10:20:29;97119.31;;;17.99;88.23
58385;BME280;44185;47.844;8.966;2023-09-30T10:23:19;97109.38;;;17.92;88.98
58385;BME280;44185;47.844;8.966;2023-09-30T10:25:47;97104.78;;;17.75;91.04
58385;BME280;44185;47.844;8.966;2023-09-30T10:28:33;97099.44;;;17.75;89.74
58385;BME280;44185;47.844;8.966;2023-09-30T10:31:08;97097.69;;;17.93;87.87
58385;BME280;44185;47.844;8.966;2023-09-30T10:33:33;97085.50;;;17.98;88.00
58385;BME280;44185;47.844;8.966;2023-09-30T10:36:00;97080.81;;;18.00;85.08
58385;BME280;44185;47.844;8.966;2023-09-30T10:38:41;97087.34;;;18.25;82.42
58385;BME280;44185;47.844;8.966;2023-09-30T10:41:08;97086.81;;;18.21;73.56
58385;BME280;44185;47.844;8.966;2023-09-30T10:43:34;97089.56;;;18.38;75.97
58385;BME280;44185;47.844;8.966;2023-09-30T10:46:00;97086.41;;;18.42;72.26
58385;BME280;44185;47.844;8.966;2023-09-30T10:48:36;97085.78;;;18.57;73.71
58385;BME280;44185;47.844;8.966;2023-09-30T10:51:10;97083.63;;;18.61;75.34
58385;BME280;44185;47.844;8.966;2023-09-30T10:53:41;97081.69;;;18.88;71.95
58385;BME280;44185;47.844;8.966;2023-09-30T10:56:08;97085.91;;;19.07;67.68
58385;BME280;44185;47.844;8.966;2023-09-30T10:58:42;97084.09;;;19.16;69.59
58385;BME280;44185;47.844;8.966;2023-09-30T11:01:08;97080.44;;;19.34;67.38
58385;BME280;44185;47.844;8.966;2023-09-30T11:03:33;97088.47;;;19.42;65.97
58385;BME280;44185;47.844;8.966;2023-09-30T11:05:58;97083.94;;;19.51;65.96
58385;BME280;44185;47.844;8.966;2023-09-30T11:08:25;97078.03;;;19.64;66.83
58385;BME280;44185;47.844;8.966;2023-09-30T11:10:53;97082.75;;;19.62;67.37
58385;BME280;44185;47.844;8.966;2023-09-30T11:13:20;97081.41;;;19.66;67.39
58385;BME280;44185;47.844;8.966;2023-09-30T11:15:46;97079.22;;;19.70;69.00
58385;BME280;44185;47.844;8.966;2023-09-30T11:18:16;97071.69;;;19.57;69.83
58385;BME280;44185;47.844;8.966;2023-09-30T11:20:42;97078.56;;;19.60;69.91
58385;BME280;44185;47.844;8.966;2023-09-30T11:23:07;97080.56;;;19.66;70.03
58385;BME280;44185;47.844;8.966;2023-09-30T11:28:38;97076.56;;;19.28;73.62
58385;BME280;44185;47.844;8.966;2023-09-30T11:31:08;97075.06;;;19.34;73.30
58385;BME280;44185;47.844;8.966;2023-09-30T11:33:47;97080.91;;;19.38;73.16
58385;BME280;44185;47.844;8.966;2023-09-30T11:36:12;97074.88;;;19.44;72.72
58385;BME280;44185;47.844;8.966;2023-09-30T11:38:44;97069.66;;;19.51;73.04
58385;BME280;44185;47.844;8.966;2023-09-30T11:41:10;97069.19;;;19.64;73.11
58385;BME280;44185;47.844;8.966;2023-09-30T11:43:37;97073.84;;;19.62;70.38
58385;BME280;44185;47.844;8.966;2023-09-30T11:46:06;97063.28;;;19.69;70.48
58385;BME280;44185;47.844;8.966;2023-09-30T11:48:32;97066.28;;;19.82;71.64
58385;BME280;44185;47.844;8.966;2023-09-30T11:50:58;97057.91;;;19.69;69.62
58385;BME280;44185;47.844;8.966;2023-09-30T11:53:24;97057.72;;;19.78;70.59
58385;BME280;44185;47.844;8.966;2023-09-30T11:55:50;97057.53;;;19.88;67.68
58385;BME280;44185;47.844;8.966;2023-09-30T11:58:15;97048.59;;;19.96;68.05
58385;BME280;44185;47.844;8.966;2023-09-30T12:00:42;97048.78;;;20.03;68.69
58385;BME280;44185;47.844;8.966;2023-09-30T12:03:08;97038.72;;;19.97;67.90
58385;BME280;44185;47.844;8.966;2023-09-30T12:05:33;97029.16;;;19.86;67.73
58385;BME280;44185;47.844;8.966;2023-09-30T12:07:58;97038.22;;;19.93;69.25
58385;BME280;44185;47.844;8.966;2023-09-30T12:10:24;97037.38;;;20.01;70.04
58385;BME280;44185;47.844;8.966;2023-09-30T12:12:49;97030.63;;;20.14;68.85
58385;BME280;44185;47.844;8.966;2023-09-30T12:15:15;97029.09;;;20.11;68.03
58385;BME280;44185;47.844;8.966;2023-09-30T12:17:41;97026.75;;;20.08;68.05
58385;BME280;44185;47.844;8.966;2023-09-30T12:20:08;97028.78;;;20.14;68.48
58385;BME280;44185;47.844;8.966;2023-09-30T12:22:33;97030.09;;;20.10;67.49
58385;BME280;44185;47.844;8.966;2023-09-30T12:24:59;97022.56;;;20.05;66.97
58385;BME280;44185;47.844;8.966;2023-09-30T12:27:24;97019.06;;;19.96;68.26
58385;BME280;44185;47.844;8.966;2023-09-30T12:29:50;97017.88;;;19.99;68.42
58385;BME280;44185;47.844;8.966;2023-09-30T12:32:15;97020.94;;;19.96;67.55
58385;BME280;44185;47.844;8.966;2023-09-30T12:34:42;97020.09;;;19.95;67.92
58385;BME280;44185;47.844;8.966;2023-09-30T12:37:07;97021.94;;;19.95;68.37
58385;BME280;44185;47.844;8.966;2023-09-30T12:39:33;97013.38;;;19.91;67.99
58385;BME280;44185;47.844;8.966;2023-09-30T12:41:58;97016.88;;;20.00;67.64
58385;BME280;44185;47.844;8.966;2023-09-30T12:44:24;97015.00;;;20.09;68.39
58385;BME280;44185;47.844;8.966;2023-09-30T12:46:49;97012.47;;;20.07;66.86
58385;BME280;44185;47.844;8.966;2023-09-30T12:49:15;97013.13;;;20.09;66.74
58385;BME280;44185;47.844;8.966;2023-09-30T12:51:42;97007.72;;;20.26;69.94